X  Bliska Dane z Metar lotniska     LIPX Verona-Villafranca Valerio Catullo Airport
Temperatura
32°C Temperatura
15°C Punkt rosy
36% Wilgotność



Wiatr
13 KM/H
8 MPH
4 M/S
7 KTS



260°
Zach
Warunki bieżące

Bezchurnie Bezchurnie
Ciśnienie 1010.84 (hPa) - 29.85 (inHg)
Widoczność 6 (mile) - 9.7 (km)
Lotnisko
Kod lotniska LIPX

Położenie: Verona-Villafranca Valerio Catullo Airport
Odległość: 50 (km)

Metar:
LIPX 141450Z 26007KT 230V290 CAVOK 32/15 Q1011

Czas: 14-07-2024 14:50 CEST